Time;durP1;ratioP1;P1;durP2;ratioP2;P2;SDS_P1;SDS_P2;PMS_P1;PMS_P2;Temp;Humidity;BMP_temperature;BMP_pressure;BME280_temperature;BME280_humidity;BME280_pressure;Samples;Min_cycle;Max_cycle;Signal;HPM_P1;HPM_P2
2022/10/31 00:00:13;;;;;;;17.63;10.82;;;;;;;;;;6307602;28;20086;-66
2022/10/31 00:03:15;;;;;;;17.88;10.00;;;;;;;;;;6312621;28;20053;-70
2022/10/31 00:06:18;;;;;;;16.80;10.68;;;;;;;;;;6312251;28;20048;-71
2022/10/31 00:09:19;;;;;;;17.67;10.30;;;;;;;;;;6312625;28;20125;-71
2022/10/31 00:12:21;;;;;;;23.08;10.93;;;;;;;;;;6313785;28;20052;-72
2022/10/31 00:15:24;;;;;;;19.40;9.70;;;;;;;;;;6311706;28;20048;-70
2022/10/31 00:18:26;;;;;;;25.17;10.57;;;;;;;;;;6310628;28;20044;-69
2022/10/31 00:21:27;;;;;;;15.90;9.80;;;;;;;;;;6312050;28;20609;-69
2022/10/31 00:24:29;;;;;;;16.98;10.27;;;;;;;;;;6311163;28;20060;-69
2022/10/31 00:27:31;;;;;;;19.55;10.10;;;;;;;;;;6311455;28;20051;-69
2022/10/31 00:30:34;;;;;;;17.55;9.43;;;;;;;;;;6313697;28;20098;-68
2022/10/31 00:33:37;;;;;;;15.70;9.63;;;;;;;;;;6313682;28;20048;-68
2022/10/31 00:36:39;;;;;;;19.60;10.52;;;;;;;;;;6312467;28;20060;-68
2022/10/31 00:39:40;;;;;;;16.80;9.90;;;;;;;;;;6311683;28;20043;-68
2022/10/31 00:42:42;;;;;;;19.50;10.13;;;;;;;;;;6309862;28;20048;-67
2022/10/31 00:45:45;;;;;;;17.73;10.15;;;;;;;;;;6313712;28;20112;-67
2022/10/31 00:48:46;;;;;;;17.90;9.90;;;;;;;;;;6307488;28;20080;-68
2022/10/31 00:51:48;;;;;;;17.35;10.43;;;;;;;;;;6317071;28;20052;-68
2022/10/31 00:54:50;;;;;;;20.40;10.05;;;;;;;;;;6315072;28;20139;-68
2022/10/31 00:57:51;;;;;;;21.95;10.52;;;;;;;;;;6309798;28;20320;-68
2022/10/31 01:00:55;;;;;;;16.48;10.23;;;;;;;;;;6309325;28;20094;-68
2022/10/31 01:03:57;;;;;;;21.30;10.32;;;;;;;;;;6313119;28;20080;-67
2022/10/31 01:06:58;;;;;;;20.52;10.43;;;;;;;;;;6308553;28;20059;-67
2022/10/31 01:10:00;;;;;;;18.83;10.00;;;;;;;;;;6312684;28;20051;-67
2022/10/31 01:13:02;;;;;;;16.42;9.52;;;;;;;;;;6313303;28;20244;-68
2022/10/31 01:16:07;;;;;;;18.90;9.82;;;;;;;;;;6312106;28;20078;-68
2022/10/31 01:19:08;;;;;;;16.90;9.23;;;;;;;;;;6311798;28;20085;-68
2022/10/31 01:22:10;;;;;;;16.25;9.50;;;;;;;;;;6312013;28;20098;-68
2022/10/31 01:25:12;;;;;;;24.50;10.30;;;;;;;;;;6314048;28;20052;-69
2022/10/31 01:28:13;;;;;;;14.05;9.38;;;;;;;;;;6311379;28;20072;-68
2022/10/31 01:31:17;;;;;;;16.35;9.27;;;;;;;;;;6308599;28;20052;-68
2022/10/31 01:34:18;;;;;;;;;;;;;;;;;;6312453;28;20147;-68
2022/10/31 01:37:20;;;;;;;16.92;9.80;;;;;;;;;;6314730;28;19966;-68
2022/10/31 01:40:21;;;;;;;20.13;10.70;;;;;;;;;;6306419;28;20086;-67
2022/10/31 01:43:23;;;;;;;20.92;11.23;;;;;;;;;;6305880;28;20051;-69
2022/10/31 01:46:29;;;;;;;19.00;10.52;;;;;;;;;;6306550;28;20110;-67
2022/10/31 01:49:34;;;;;;;15.85;9.10;;;;;;;;;;6308130;28;20109;-68
2022/10/31 01:52:39;;;;;;;18.13;9.25;;;;;;;;;;6309751;28;20178;-67
2022/10/31 01:55:43;;;;;;;14.57;8.60;;;;;;;;;;6307493;28;20097;-67
2022/10/31 01:58:46;;;;;;;21.50;8.93;;;;;;;;;;6305571;28;20052;-67
2022/10/31 02:01:50;;;;;;;17.23;8.80;;;;;;;;;;6307750;28;20270;-67
2022/10/31 02:04:53;;;;;;;18.45;9.50;;;;;;;;;;6300429;28;20064;-68
2022/10/31 02:07:58;;;;;;;15.77;9.45;;;;;;;;;;6307755;28;20044;-68
2022/10/31 02:11:02;;;;;;;18.23;10.48;;;;;;;;;;6305688;28;20117;-68
2022/10/31 02:14:03;;;;;;;;;;;;;;;;;;6303287;28;20052;-68
2022/10/31 02:17:06;;;;;;;19.95;9.30;;;;;;;;;;6302256;28;20073;-68
2022/10/31 02:20:14;;;;;;;21.20;9.87;;;;;;;;;;6308378;28;20122;-68
2022/10/31 02:23:31;;;;;;;14.88;8.65;;;;;;;;;;6305752;28;20183;-68
2022/10/31 02:26:44;;;;;;;17.88;9.68;;;;;;;;;;6301466;28;20098;-68
2022/10/31 02:30:07;;;;;;;14.37;8.70;;;;;;;;;;6308749;28;20336;-67
2022/10/31 02:33:16;;;;;;;15.00;9.40;;;;;;;;;;6308424;28;20047;-69
2022/10/31 02:36:23;;;;;;;17.92;9.60;;;;;;;;;;6306668;28;20082;-70
2022/10/31 02:39:27;;;;;;;14.02;9.18;;;;;;;;;;6305374;28;20761;-70
2022/10/31 02:42:34;;;;;;;20.27;9.05;;;;;;;;;;6303067;28;20112;-70
2022/10/31 02:45:41;;;;;;;14.48;8.43;;;;;;;;;;6303038;28;20052;-70
2022/10/31 02:48:45;;;;;;;13.43;8.35;;;;;;;;;;6304051;28;20052;-70
2022/10/31 02:51:47;;;;;;;14.65;8.43;;;;;;;;;;6306975;28;20053;-70
2022/10/31 02:54:49;;;;;;;14.40;8.85;;;;;;;;;;6313134;28;20048;-70
2022/10/31 02:57:51;;;;;;;16.42;9.25;;;;;;;;;;6315514;28;20102;-70
2022/10/31 03:01:23;;;;;;;15.88;8.20;;;;;;;;;;6310953;28;20332;-70
2022/10/31 03:04:44;;;;;;;16.30;8.32;;;;;;;;;;6264002;28;20106;-70
2022/10/31 03:07:54;;;;;;;14.75;7.63;;;;;;;;;;6311473;28;20052;-70
2022/10/31 03:10:58;;;;;;;13.00;7.78;;;;;;;;;;6313038;28;20059;-70
2022/10/31 03:14:02;;;;;;;14.77;8.23;;;;;;;;;;6313855;28;20056;-70
2022/10/31 03:17:06;;;;;;;16.60;8.38;;;;;;;;;;6314945;28;20276;-70
2022/10/31 03:20:11;;;;;;;17.08;8.27;;;;;;;;;;6315257;28;20041;-69
2022/10/31 03:23:15;;;;;;;14.63;7.50;;;;;;;;;;6311234;28;20040;-70
2022/10/31 03:26:17;;;;;;;13.18;7.55;;;;;;;;;;6308492;28;20052;-70
2022/10/31 03:29:21;;;;;;;13.30;7.32;;;;;;;;;;6315249;28;20109;-70
2022/10/31 03:32:25;;;;;;;14.18;7.38;;;;;;;;;;6316224;28;20117;-69
2022/10/31 03:35:28;;;;;;;12.80;6.95;;;;;;;;;;6312542;28;20102;-69
2022/10/31 03:38:30;;;;;;;12.65;7.10;;;;;;;;;;6315974;28;20059;-70
2022/10/31 03:41:36;;;;;;;16.30;7.25;;;;;;;;;;6314726;28;20044;-69
2022/10/31 03:44:39;;;;;;;14.65;7.20;;;;;;;;;;6313313;28;20391;-70
2022/10/31 03:47:42;;;;;;;12.95;8.10;;;;;;;;;;6314687;28;20109;-70
2022/10/31 03:50:49;;;;;;;12.30;7.80;;;;;;;;;;6316720;28;20063;-70
2022/10/31 03:53:56;;;;;;;14.07;7.53;;;;;;;;;;6313816;28;20222;-70
2022/10/31 03:56:59;;;;;;;16.00;7.72;;;;;;;;;;6304756;28;20393;-70
2022/10/31 04:00:05;;;;;;;14.98;7.78;;;;;;;;;;6313475;28;20102;-70
2022/10/31 04:03:08;;;;;;;13.40;6.88;;;;;;;;;;6311175;28;20044;-70
2022/10/31 04:06:13;;;;;;;18.10;7.65;;;;;;;;;;6312482;28;20044;-70
2022/10/31 04:09:16;;;;;;;13.55;7.25;;;;;;;;;;6316425;28;20079;-70
2022/10/31 04:12:17;;;;;;;16.48;7.22;;;;;;;;;;6309839;28;20056;-69
2022/10/31 04:15:20;;;;;;;12.95;7.15;;;;;;;;;;6311171;28;20067;-69
2022/10/31 04:18:23;;;;;;;12.15;7.13;;;;;;;;;;6313762;28;20070;-71
2022/10/31 04:21:29;;;;;;;11.87;6.93;;;;;;;;;;6308305;28;20329;-71
2022/10/31 04:24:31;;;;;;;13.63;7.10;;;;;;;;;;6310051;28;20345;-71
2022/10/31 04:27:32;;;;;;;9.75;6.47;;;;;;;;;;6310422;28;20355;-71
2022/10/31 04:30:34;;;;;;;13.00;6.93;;;;;;;;;;6310400;28;20127;-70
2022/10/31 04:33:35;;;;;;;15.40;6.28;;;;;;;;;;6315140;28;20055;-70
2022/10/31 04:36:38;;;;;;;10.27;5.95;;;;;;;;;;6315251;28;20071;-70
2022/10/31 04:39:40;;;;;;;10.60;6.20;;;;;;;;;;6312300;28;20101;-70
2022/10/31 04:42:41;;;;;;;13.15;5.97;;;;;;;;;;6315360;28;20105;-70
2022/10/31 04:45:43;;;;;;;11.13;6.40;;;;;;;;;;6315990;28;20044;-70
2022/10/31 04:48:45;;;;;;;12.45;6.60;;;;;;;;;;6314666;28;20044;-70
2022/10/31 04:51:48;;;;;;;10.68;6.45;;;;;;;;;;6313083;28;20064;-70
2022/10/31 04:54:49;;;;;;;15.30;6.53;;;;;;;;;;6308917;28;20339;-70
2022/10/31 04:57:51;;;;;;;11.00;6.18;;;;;;;;;;6311214;28;20045;-70
2022/10/31 05:00:53;;;;;;;13.05;6.57;;;;;;;;;;6305093;28;20036;-70
2022/10/31 05:03:55;;;;;;;10.15;6.05;;;;;;;;;;6307816;28;20056;-70
2022/10/31 05:06:58;;;;;;;12.18;6.78;;;;;;;;;;6308865;28;20056;-70
2022/10/31 05:09:59;;;;;;;12.03;6.10;;;;;;;;;;6307324;28;20059;-70
2022/10/31 05:13:02;;;;;;;16.70;6.25;;;;;;;;;;6304747;28;20101;-70
2022/10/31 05:16:04;;;;;;;20.73;7.13;;;;;;;;;;6305348;28;20051;-70
2022/10/31 05:19:05;;;;;;;14.38;7.35;;;;;;;;;;6304218;28;20094;-70
2022/10/31 05:22:08;;;;;;;13.93;6.70;;;;;;;;;;6304908;28;20048;-70
2022/10/31 05:25:10;;;;;;;11.83;6.40;;;;;;;;;;6305464;28;20048;-69
2022/10/31 05:28:12;;;;;;;12.93;6.57;;;;;;;;;;6305462;28;20090;-70
2022/10/31 05:31:13;;;;;;;14.63;7.07;;;;;;;;;;6304620;28;20048;-70
2022/10/31 05:34:15;;;;;;;12.38;7.35;;;;;;;;;;6305918;28;20051;-70
2022/10/31 05:37:18;;;;;;;12.07;7.05;;;;;;;;;;6308012;28;20259;-70
2022/10/31 05:40:20;;;;;;;10.97;7.37;;;;;;;;;;6301380;28;20679;-70
2022/10/31 05:43:22;;;;;;;13.45;7.70;;;;;;;;;;6307145;28;20044;-70
2022/10/31 05:46:24;;;;;;;12.27;7.30;;;;;;;;;;6304703;28;20118;-70
2022/10/31 05:49:25;;;;;;;13.80;7.28;;;;;;;;;;6304963;28;20367;-70
2022/10/31 05:52:28;;;;;;;16.60;7.53;;;;;;;;;;6304736;28;20267;-70
2022/10/31 05:55:30;;;;;;;16.33;8.10;;;;;;;;;;6306986;28;20310;-70
2022/10/31 05:58:32;;;;;;;19.20;7.80;;;;;;;;;;6309051;28;20048;-70
2022/10/31 06:01:33;;;;;;;14.48;8.32;;;;;;;;;;6305854;28;20052;-70
2022/10/31 06:04:35;;;;;;;16.58;8.65;;;;;;;;;;6304412;28;20313;-70
2022/10/31 06:07:38;;;;;;;16.45;8.82;;;;;;;;;;6309904;28;20059;-70
2022/10/31 06:10:40;;;;;;;14.40;8.50;;;;;;;;;;6303978;28;20375;-70
2022/10/31 06:13:41;;;;;;;16.50;8.90;;;;;;;;;;6305869;28;20049;-69
2022/10/31 06:16:43;;;;;;;16.60;8.57;;;;;;;;;;6304102;28;20048;-70
2022/10/31 06:19:45;;;;;;;16.77;8.10;;;;;;;;;;6305390;28;20045;-70
2022/10/31 06:22:48;;;;;;;16.50;9.27;;;;;;;;;;6301483;28;20048;-70
2022/10/31 06:25:50;;;;;;;12.43;8.17;;;;;;;;;;6304916;28;20067;-70
2022/10/31 06:28:51;;;;;;;16.52;8.68;;;;;;;;;;6308654;28;20063;-70
2022/10/31 06:31:53;;;;;;;14.48;8.25;;;;;;;;;;6310021;28;20056;-70
2022/10/31 06:34:54;;;;;;;13.70;8.57;;;;;;;;;;6309931;28;20292;-70
2022/10/31 06:37:57;;;;;;;15.05;8.65;;;;;;;;;;6308486;28;20352;-70
2022/10/31 06:41:03;;;;;;;13.13;8.07;;;;;;;;;;6310431;28;20051;-70
2022/10/31 06:44:05;;;;;;;13.77;8.50;;;;;;;;;;6312393;28;20052;-70
2022/10/31 06:47:07;;;;;;;17.42;8.80;;;;;;;;;;6307753;28;20052;-70
2022/10/31 06:50:09;;;;;;;15.05;8.77;;;;;;;;;;6313962;28;20043;-70
2022/10/31 06:53:13;;;;;;;14.48;8.32;;;;;;;;;;6312638;28;20352;-70
2022/10/31 06:56:14;;;;;;;24.42;8.93;;;;;;;;;;6316982;28;20355;-70
2022/10/31 06:59:16;;;;;;;18.63;9.23;;;;;;;;;;6317795;28;20048;-70
2022/10/31 07:02:18;;;;;;;16.08;8.90;;;;;;;;;;6317553;28;20048;-70
2022/10/31 07:05:19;;;;;;;16.75;8.95;;;;;;;;;;6317558;28;20048;-71
2022/10/31 07:08:22;;;;;;;14.02;8.35;;;;;;;;;;6313599;28;20090;-70
2022/10/31 07:11:24;;;;;;;14.73;9.60;;;;;;;;;;6316786;28;20059;-70
2022/10/31 07:14:25;;;;;;;17.83;9.57;;;;;;;;;;6318444;28;20094;-70
2022/10/31 07:17:27;;;;;;;13.95;8.57;;;;;;;;;;6321522;28;20053;-71
2022/10/31 07:20:28;;;;;;;17.55;8.25;;;;;;;;;;6319711;28;20056;-71
2022/10/31 07:23:31;;;;;;;15.05;7.65;;;;;;;;;;6318771;28;20097;-71
2022/10/31 07:26:33;;;;;;;12.68;7.00;;;;;;;;;;6309015;28;20341;-71
2022/10/31 07:29:34;;;;;;;14.43;6.90;;;;;;;;;;6310734;28;20387;-71
2022/10/31 07:32:40;;;;;;;10.38;6.38;;;;;;;;;;6307967;28;20097;-71
2022/10/31 07:35:41;;;;;;;15.15;7.00;;;;;;;;;;6313457;28;20050;-70
2022/10/31 07:38:44;;;;;;;13.32;7.28;;;;;;;;;;6305457;28;20052;-71
2022/10/31 07:41:46;;;;;;;14.48;7.07;;;;;;;;;;6308197;28;20267;-68
2022/10/31 07:44:47;;;;;;;12.10;6.70;;;;;;;;;;6307241;28;20059;-71
2022/10/31 07:47:50;;;;;;;13.80;6.90;;;;;;;;;;6310155;28;20060;-70
2022/10/31 07:50:52;;;;;;;12.07;6.82;;;;;;;;;;6308448;28;20063;-71
2022/10/31 07:53:55;;;;;;;16.67;7.68;;;;;;;;;;6310121;28;20040;-68
2022/10/31 07:56:56;;;;;;;12.10;6.70;;;;;;;;;;6308352;28;20348;-70
2022/10/31 07:59:58;;;;;;;12.63;7.15;;;;;;;;;;6307682;28;20110;-70
2022/10/31 08:03:00;;;;;;;13.75;6.65;;;;;;;;;;6309623;28;20060;-70
2022/10/31 08:06:02;;;;;;;10.40;6.57;;;;;;;;;;6309294;28;20282;-70
2022/10/31 08:09:05;;;;;;;17.23;7.78;;;;;;;;;;6307707;28;20097;-71
2022/10/31 08:12:06;;;;;;;11.38;6.85;;;;;;;;;;6306755;28;20053;-70
2022/10/31 08:15:09;;;;;;;13.00;7.60;;;;;;;;;;6305181;28;20077;-70
2022/10/31 08:18:14;;;;;;;15.93;7.60;;;;;;;;;;6305555;28;20056;-70
2022/10/31 08:21:16;;;;;;;13.40;6.85;;;;;;;;;;6306857;28;20048;-70
2022/10/31 08:24:19;;;;;;;14.88;7.30;;;;;;;;;;6306271;28;20056;-70
2022/10/31 08:27:20;;;;;;;12.27;7.30;;;;;;;;;;6305409;28;20051;-71
2022/10/31 08:30:23;;;;;;;18.00;7.13;;;;;;;;;;6308460;28;20045;-70
2022/10/31 08:33:25;;;;;;;13.00;7.30;;;;;;;;;;6308341;28;20385;-70
2022/10/31 08:36:28;;;;;;;14.75;8.40;;;;;;;;;;6309024;28;20052;-70
2022/10/31 08:39:31;;;;;;;14.85;8.25;;;;;;;;;;6307665;28;20057;-70
2022/10/31 08:42:32;;;;;;;16.63;8.73;;;;;;;;;;6305459;28;20052;-70
2022/10/31 08:45:35;;;;;;;17.13;10.20;;;;;;;;;;6304821;28;20071;-70
2022/10/31 08:48:36;;;;;;;15.83;9.97;;;;;;;;;;6307196;28;20287;-70
2022/10/31 08:51:38;;;;;;;15.35;8.95;;;;;;;;;;6307325;28;20557;-70
2022/10/31 08:54:41;;;;;;;14.13;8.98;;;;;;;;;;6307759;28;20045;-71
2022/10/31 08:57:42;;;;;;;17.02;9.82;;;;;;;;;;6310604;28;20143;-70
2022/10/31 09:00:45;;;;;;;15.25;9.45;;;;;;;;;;6305552;28;20214;-68
2022/10/31 09:03:46;;;;;;;18.20;10.60;;;;;;;;;;6306390;28;20114;-70
2022/10/31 09:06:48;;;;;;;17.98;10.35;;;;;;;;;;6310840;28;20141;-70
2022/10/31 09:09:51;;;;;;;16.80;10.30;;;;;;;;;;6306718;28;20255;-70
2022/10/31 09:12:56;;;;;;;16.10;10.43;;;;;;;;;;6304152;28;20157;-71
2022/10/31 09:15:58;;;;;;;15.55;9.93;;;;;;;;;;6306103;28;20360;-71
2022/10/31 09:19:00;;;;;;;16.55;8.45;;;;;;;;;;6307345;28;20263;-71
2022/10/31 09:22:01;;;;;;;17.75;8.98;;;;;;;;;;6304398;28;20087;-71
2022/10/31 09:25:05;;;;;;;20.20;8.85;;;;;;;;;;6305892;28;20036;-68
2022/10/31 09:28:08;;;;;;;12.00;7.82;;;;;;;;;;6306309;28;20055;-71
2022/10/31 09:31:09;;;;;;;;;;;;;;;;;;6304659;28;20110;-70
2022/10/31 09:34:11;;;;;;;13.55;7.93;;;;;;;;;;6306210;28;19977;-70
2022/10/31 09:37:12;;;;;;;12.55;8.27;;;;;;;;;;6307429;28;20324;-70
2022/10/31 09:40:15;;;;;;;12.23;8.52;;;;;;;;;;6304326;28;20060;-70
2022/10/31 09:43:23;;;;;;;14.85;8.75;;;;;;;;;;6307079;28;20040;-70
2022/10/31 09:46:30;;;;;;;15.45;8.63;;;;;;;;;;6304115;28;20051;-70
2022/10/31 09:49:41;;;;;;;17.77;8.93;;;;;;;;;;6306454;28;20053;-70
2022/10/31 09:52:48;;;;;;;15.98;8.00;;;;;;;;;;6303671;28;20393;-70
2022/10/31 09:55:52;;;;;;;12.45;7.57;;;;;;;;;;6305679;28;20048;-70
2022/10/31 09:58:57;;;;;;;14.63;8.02;;;;;;;;;;6302553;28;20063;-70
2022/10/31 10:02:02;;;;;;;10.52;6.80;;;;;;;;;;6305043;28;20067;-70
2022/10/31 10:05:05;;;;;;;13.60;7.90;;;;;;;;;;6311200;28;20047;-70
2022/10/31 10:08:11;;;;;;;9.63;6.75;;;;;;;;;;6314909;28;20106;-70
2022/10/31 10:11:28;;;;;;;10.05;6.07;;;;;;;;;;6310635;28;20052;-70
2022/10/31 10:14:48;;;;;;;10.88;6.70;;;;;;;;;;6310107;28;20347;-70
2022/10/31 10:18:00;;;;;;;8.57;5.65;;;;;;;;;;6312940;28;20056;-70
2022/10/31 10:21:11;;;;;;;15.00;6.03;;;;;;;;;;6311796;28;20048;-70
2022/10/31 10:24:34;;;;;;;10.13;6.28;;;;;;;;;;6314044;28;20187;-70
2022/10/31 10:27:46;;;;;;;10.10;7.43;;;;;;;;;;6310076;28;20100;-70
2022/10/31 10:30:48;;;;;;;;;;;;;;;;;;6311416;28;20193;-70
2022/10/31 10:33:59;;;;;;;11.35;6.78;;;;;;;;;;6314028;28;19920;-70
2022/10/31 10:37:03;;;;;;;13.10;6.43;;;;;;;;;;6313408;28;20051;-70
2022/10/31 10:40:09;;;;;;;14.82;6.07;;;;;;;;;;6313292;28;20052;-70
2022/10/31 10:43:23;;;;;;;13.90;5.50;;;;;;;;;;6311260;28;20284;-70
2022/10/31 10:49:51;;;;;;;13.55;5.85;;;;;;;;;;6314232;28;20056;-69
2022/10/31 10:52:59;;;;;;;10.88;6.57;;;;;;;;;;6311595;28;20071;-70
2022/10/31 10:56:05;;;;;;;9.75;5.63;;;;;;;;;;6313248;28;20062;-67
2022/10/31 10:59:11;;;;;;;10.55;7.00;;;;;;;;;;6310213;28;20052;-69
2022/10/31 11:02:17;;;;;;;11.05;5.88;;;;;;;;;;6311504;28;20048;-68
2022/10/31 11:05:26;;;;;;;11.25;6.55;;;;;;;;;;6315100;28;20044;-68
2022/10/31 11:08:29;;;;;;;10.40;6.68;;;;;;;;;;6311187;28;20052;-69
2022/10/31 11:11:31;;;;;;;10.45;6.32;;;;;;;;;;6307154;28;20052;-68
2022/10/31 11:14:37;;;;;;;10.68;5.78;;;;;;;;;;6307543;28;20072;-69
2022/10/31 11:17:40;;;;;;;7.82;4.97;;;;;;;;;;6306379;28;20056;-69
2022/10/31 11:20:52;;;;;;;12.10;5.30;;;;;;;;;;6308109;28;20056;-68
2022/10/31 11:24:03;;;;;;;6.27;4.70;;;;;;;;;;6306308;28;20040;-68
2022/10/31 11:27:14;;;;;;;8.65;4.65;;;;;;;;;;6307882;28;20583;-68
2022/10/31 11:30:17;;;;;;;9.45;4.82;;;;;;;;;;6306356;28;20048;-69
2022/10/31 11:33:23;;;;;;;8.07;5.15;;;;;;;;;;6309456;28;20284;-68
2022/10/31 11:36:27;;;;;;;9.07;4.53;;;;;;;;;;6310717;28;20107;-68
2022/10/31 11:39:29;;;;;;;10.43;5.30;;;;;;;;;;6308917;28;20059;-68
2022/10/31 11:42:36;;;;;;;9.30;4.30;;;;;;;;;;6310693;28;20354;-70
2022/10/31 11:45:39;;;;;;;10.02;5.45;;;;;;;;;;6309309;28;20640;-70
2022/10/31 11:48:47;;;;;;;10.43;5.18;;;;;;;;;;6305154;28;20213;-68
2022/10/31 11:51:51;;;;;;;10.75;5.55;;;;;;;;;;6309252;28;20554;-69
2022/10/31 11:54:55;;;;;;;8.52;4.95;;;;;;;;;;6306552;28;20071;-69
2022/10/31 11:57:57;;;;;;;10.73;4.47;;;;;;;;;;6310957;28;20336;-69
2022/10/31 12:01:00;;;;;;;7.93;4.30;;;;;;;;;;6310769;28;20048;-68
2022/10/31 12:04:07;;;;;;;10.00;4.47;;;;;;;;;;6308879;28;20117;-71
2022/10/31 12:07:08;;;;;;;9.23;4.80;;;;;;;;;;6307680;28;20097;-70
2022/10/31 12:10:12;;;;;;;9.98;4.93;;;;;;;;;;6306804;28;20044;-68
2022/10/31 12:13:31;;;;;;;9.70;4.57;;;;;;;;;;6307351;28;20094;-68
2022/10/31 12:16:40;;;;;;;7.78;4.47;;;;;;;;;;6306213;28;20068;-69
2022/10/31 12:19:46;;;;;;;9.63;4.30;;;;;;;;;;6307350;28;20052;-69
2022/10/31 12:22:54;;;;;;;9.95;4.25;;;;;;;;;;6306650;28;20064;-69
2022/10/31 12:26:04;;;;;;;9.55;4.07;;;;;;;;;;6307641;28;20364;-69
2022/10/31 12:29:16;;;;;;;8.45;4.45;;;;;;;;;;6305641;28;20059;-69
2022/10/31 12:32:30;;;;;;;9.48;4.10;;;;;;;;;;6308902;28;20044;-68
2022/10/31 12:35:42;;;;;;;7.97;3.92;;;;;;;;;;6309763;28;20045;-69
2022/10/31 12:38:54;;;;;;;9.37;4.40;;;;;;;;;;6306168;28;20351;-68
2022/10/31 12:41:58;;;;;;;;;;;;;;;;;;6305241;28;20467;-68
2022/10/31 12:45:12;;;;;;;11.95;4.10;;;;;;;;;;6306975;28;19924;-69
2022/10/31 12:48:25;;;;;;;8.88;3.80;;;;;;;;;;6306790;28;20056;-69
2022/10/31 12:51:34;;;;;;;7.15;3.45;;;;;;;;;;6306208;28;20052;-68
2022/10/31 12:54:50;;;;;;;10.13;4.00;;;;;;;;;;6307421;28;20068;-69
2022/10/31 12:57:54;;;;;;;8.10;3.60;;;;;;;;;;6309234;28;20243;-68
2022/10/31 13:01:05;;;;;;;8.07;3.70;;;;;;;;;;6307907;28;20060;-68
2022/10/31 13:04:20;;;;;;;9.25;4.63;;;;;;;;;;6306949;28;20588;-69
2022/10/31 13:07:26;;;;;;;6.60;3.67;;;;;;;;;;6308324;28;20052;-69
2022/10/31 13:10:31;;;;;;;8.68;3.70;;;;;;;;;;6305379;28;20048;-68
2022/10/31 13:13:36;;;;;;;7.72;3.85;;;;;;;;;;6304055;28;20053;-68
2022/10/31 13:16:40;;;;;;;7.65;3.97;;;;;;;;;;6304371;28;20304;-69
2022/10/31 13:19:44;;;;;;;8.25;3.63;;;;;;;;;;6303877;28;20047;-69
2022/10/31 13:22:49;;;;;;;7.75;3.67;;;;;;;;;;6303396;28;20040;-69
2022/10/31 13:25:53;;;;;;;9.00;3.50;;;;;;;;;;6305810;28;20048;-69
2022/10/31 13:29:00;;;;;;;7.65;3.10;;;;;;;;;;6303064;28;20124;-70
2022/10/31 13:32:05;;;;;;;7.43;3.28;;;;;;;;;;6305307;28;20275;-69
2022/10/31 13:35:14;;;;;;;8.50;3.50;;;;;;;;;;6306493;28;20392;-69
2022/10/31 13:38:21;;;;;;;7.20;3.58;;;;;;;;;;6304842;28;20044;-69
2022/10/31 13:41:33;;;;;;;8.23;3.80;;;;;;;;;;6302434;28;20146;-70
2022/10/31 13:44:37;;;;;;;;;;;;;;;;;;6304073;28;20067;-69
2022/10/31 13:47:38;;;;;;;9.27;3.80;;;;;;;;;;6305070;28;19924;-69
2022/10/31 13:50:42;;;;;;;11.30;3.63;;;;;;;;;;6304689;28;20282;-69
2022/10/31 13:53:46;;;;;;;8.48;3.10;;;;;;;;;;6304553;28;20235;-69
2022/10/31 13:56:49;;;;;;;9.25;3.38;;;;;;;;;;6306813;28;20102;-69
2022/10/31 13:59:52;;;;;;;8.95;4.25;;;;;;;;;;6304783;28;20044;-69
2022/10/31 14:02:57;;;;;;;7.07;3.78;;;;;;;;;;6302020;28;20056;-69
2022/10/31 14:06:00;;;;;;;8.18;3.58;;;;;;;;;;6307737;28;20429;-69
2022/10/31 14:09:02;;;;;;;10.95;4.22;;;;;;;;;;6302182;28;20044;-69
2022/10/31 14:12:07;;;;;;;10.00;3.90;;;;;;;;;;6305307;28;20056;-69
2022/10/31 14:15:16;;;;;;;12.35;4.13;;;;;;;;;;6305991;28;20055;-69
2022/10/31 14:18:22;;;;;;;5.28;3.78;;;;;;;;;;6305407;28;20056;-69
2022/10/31 14:21:30;;;;;;;8.55;3.47;;;;;;;;;;6309141;28;20082;-69
2022/10/31 14:24:37;;;;;;;9.10;3.53;;;;;;;;;;6308020;28;20122;-69
2022/10/31 14:27:47;;;;;;;8.95;3.75;;;;;;;;;;6312373;28;20049;-70
2022/10/31 14:30:53;;;;;;;9.65;4.00;;;;;;;;;;6309563;28;20044;-71
2022/10/31 14:33:54;;;;;;;5.60;3.22;;;;;;;;;;6309835;28;20048;-71
2022/10/31 14:37:06;;;;;;;6.63;3.10;;;;;;;;;;6310871;28;20105;-71
2022/10/31 14:40:17;;;;;;;9.23;3.60;;;;;;;;;;6312298;28;20047;-69
2022/10/31 14:44:02;;;;;;;10.82;3.60;;;;;;;;;;6311107;28;20040;-69
2022/10/31 14:47:12;;;;;;;9.85;2.95;;;;;;;;;;6196056;28;20108;-68
2022/10/31 14:50:30;;;;;;;11.82;3.83;;;;;;;;;;6196392;28;20050;-68
2022/10/31 14:53:37;;;;;;;10.70;3.42;;;;;;;;;;6202150;28;20061;-68
2022/10/31 14:56:42;;;;;;;7.72;3.70;;;;;;;;;;6198289;28;20258;-68
2022/10/31 14:59:48;;;;;;;9.18;3.80;;;;;;;;;;6199477;28;20042;-69
2022/10/31 15:02:58;;;;;;;6.35;3.42;;;;;;;;;;6200230;28;20202;-69
2022/10/31 15:06:03;;;;;;;7.47;3.17;;;;;;;;;;6197384;28;20082;-68
2022/10/31 15:09:06;;;;;;;6.53;3.03;;;;;;;;;;6198868;28;20374;-68
2022/10/31 15:12:24;;;;;;;;;;;;;;;;;;6198177;28;20061;-68
2022/10/31 15:15:27;;;;;;;7.57;3.47;;;;;;;;;;6200391;28;19925;-68
2022/10/31 15:18:29;;;;;;;9.15;3.55;;;;;;;;;;6197745;28;20227;-68
2022/10/31 15:21:31;;;;;;;14.27;3.57;;;;;;;;;;6286465;28;20068;-67
2022/10/31 15:24:36;;;;;;;10.85;3.53;;;;;;;;;;6306455;28;20053;-68
2022/10/31 15:27:41;;;;;;;10.65;3.17;;;;;;;;;;6305140;28;20336;-69
2022/10/31 15:30:51;;;;;;;12.05;3.90;;;;;;;;;;6306768;28;20324;-69
2022/10/31 15:33:57;;;;;;;15.68;4.15;;;;;;;;;;6306064;28;20072;-69
2022/10/31 15:36:58;;;;;;;10.30;3.53;;;;;;;;;;6312139;28;20245;-68
2022/10/31 15:40:12;;;;;;;9.75;3.60;;;;;;;;;;6305705;28;20052;-68
2022/10/31 15:43:17;;;;;;;9.40;3.97;;;;;;;;;;6307735;28;20048;-69
2022/10/31 15:46:18;;;;;;;8.82;4.35;;;;;;;;;;6306033;28;20051;-68
2022/10/31 15:49:28;;;;;;;10.43;4.38;;;;;;;;;;6305905;28;20058;-68
2022/10/31 15:52:33;;;;;;;15.55;4.80;;;;;;;;;;6307904;28;20405;-70
2022/10/31 15:55:39;;;;;;;13.70;5.05;;;;;;;;;;6308526;28;20056;-70
2022/10/31 15:58:44;;;;;;;14.10;4.90;;;;;;;;;;6307157;28;20117;-71
2022/10/31 16:02:00;;;;;;;12.20;4.75;;;;;;;;;;6307073;28;20439;-68
2022/10/31 16:05:02;;;;;;;13.15;4.60;;;;;;;;;;6308783;28;20133;-68
2022/10/31 16:08:05;;;;;;;13.35;4.97;;;;;;;;;;6303744;28;20049;-67
2022/10/31 16:11:28;;;;;;;20.30;4.87;;;;;;;;;;6305615;28;20101;-68
2022/10/31 16:14:41;;;;;;;11.10;4.60;;;;;;;;;;6305287;28;20348;-68
2022/10/31 16:17:43;;;;;;;10.88;4.78;;;;;;;;;;6306832;28;20120;-68
2022/10/31 16:20:52;;;;;;;24.17;5.95;;;;;;;;;;6304578;28;20049;-68
2022/10/31 16:23:57;;;;;;;15.70;5.68;;;;;;;;;;6302986;28;20159;-68
2022/10/31 16:27:03;;;;;;;19.05;5.53;;;;;;;;;;6305629;28;20221;-68
2022/10/31 16:30:29;;;;;;;13.85;4.70;;;;;;;;;;6306202;28;20060;-69
2022/10/31 16:33:33;;;;;;;13.90;4.40;;;;;;;;;;6304625;28;20245;-69
2022/10/31 16:36:38;;;;;;;8.93;4.07;;;;;;;;;;6309417;28;20064;-68
2022/10/31 16:39:39;;;;;;;11.85;4.47;;;;;;;;;;6304552;28;20050;-69
2022/10/31 16:42:43;;;;;;;14.52;5.75;;;;;;;;;;6304307;28;20351;-67
2022/10/31 16:45:46;;;;;;;20.67;7.00;;;;;;;;;;6305530;28;20044;-69
2022/10/31 16:48:47;;;;;;;24.80;6.60;;;;;;;;;;6311917;28;20060;-70
2022/10/31 16:51:49;;;;;;;27.63;7.70;;;;;;;;;;6313589;28;20087;-70
2022/10/31 16:54:51;;;;;;;16.63;6.90;;;;;;;;;;6307277;28;20063;-70
2022/10/31 16:57:55;;;;;;;13.35;5.38;;;;;;;;;;6311659;28;20116;-69
2022/10/31 17:00:58;;;;;;;18.27;4.97;;;;;;;;;;6312921;28;20117;-70
2022/10/31 17:04:00;;;;;;;15.43;4.88;;;;;;;;;;6311602;28;20056;-69
2022/10/31 17:07:01;;;;;;;15.63;6.72;;;;;;;;;;6308878;28;20170;-71
2022/10/31 17:10:03;;;;;;;15.00;6.10;;;;;;;;;;6278810;28;20343;-71
2022/10/31 17:13:10;;;;;;;12.50;5.78;;;;;;;;;;6312289;28;20095;-69
2022/10/31 17:16:13;;;;;;;19.23;5.68;;;;;;;;;;6305231;28;20049;-70
2022/10/31 17:19:15;;;;;;;;;;;;;;;;;;6309442;28;20048;-69
2022/10/31 17:22:16;;;;;;;13.20;5.50;;;;;;;;;;6313384;28;19924;-70
2022/10/31 17:25:21;;;;;;;16.25;5.43;;;;;;;;;;6311437;28;20683;-68
2022/10/31 17:28:25;;;;;;;14.68;6.32;;;;;;;;;;6307891;28;20040;-69
2022/10/31 17:31:28;;;;;;;16.10;6.32;;;;;;;;;;6299741;28;20073;-69
2022/10/31 17:34:30;;;;;;;17.25;6.60;;;;;;;;;;6297181;28;20056;-68
2022/10/31 17:37:32;;;;;;;17.23;5.90;;;;;;;;;;6306240;28;20098;-68
2022/10/31 17:40:33;;;;;;;18.05;6.40;;;;;;;;;;6299806;28;20052;-68
2022/10/31 17:43:36;;;;;;;17.40;6.78;;;;;;;;;;6300129;28;20078;-68
2022/10/31 17:46:38;;;;;;;14.77;7.03;;;;;;;;;;6305804;28;20052;-68
2022/10/31 17:49:40;;;;;;;13.02;5.60;;;;;;;;;;6303102;28;20062;-68
2022/10/31 17:52:41;;;;;;;13.73;6.03;;;;;;;;;;6303178;28;20087;-68
2022/10/31 17:55:43;;;;;;;14.35;6.30;;;;;;;;;;6306468;28;20090;-68
2022/10/31 17:58:46;;;;;;;18.70;6.72;;;;;;;;;;6308962;28;20236;-68
2022/10/31 18:01:48;;;;;;;16.55;6.57;;;;;;;;;;6299164;28;20112;-67
2022/10/31 18:04:49;;;;;;;15.25;6.85;;;;;;;;;;6308672;28;20236;-67
2022/10/31 18:07:51;;;;;;;20.10;7.35;;;;;;;;;;6305164;28;20058;-68
2022/10/31 18:10:53;;;;;;;15.05;6.65;;;;;;;;;;6306929;28;20052;-68
2022/10/31 18:13:57;;;;;;;21.40;8.60;;;;;;;;;;6301110;28;20064;-68
2022/10/31 18:16:58;;;;;;;16.67;6.68;;;;;;;;;;6309597;28;20044;-68